createdAt,value
2022-10-27T00:01:30.196Z,20.48
2022-10-27T00:04:18.456Z,22.77
2022-10-27T00:07:06.341Z,20.88
2022-10-27T00:09:54.632Z,21.92
2022-10-27T00:12:43.727Z,17.65
2022-10-27T00:15:34.813Z,19.48
2022-10-27T00:18:23.004Z,19.15
2022-10-27T00:21:18.793Z,19.63
2022-10-27T00:24:09.984Z,20.38
2022-10-27T00:27:11.697Z,25.00
2022-10-27T00:30:02.350Z,15.73
2022-10-27T00:32:50.872Z,18.13
2022-10-27T00:35:39.265Z,18.33
2022-10-27T00:38:32.605Z,19.58
2022-10-27T00:41:36.144Z,23.83
2022-10-27T00:44:39.493Z,19.50
2022-10-27T00:47:34.697Z,24.48
2022-10-27T00:50:26.511Z,22.80
2022-10-27T00:56:08.286Z,25.05
2022-10-27T00:58:57.170Z,26.60
2022-10-27T01:01:47.776Z,25.08
2022-10-27T01:04:49.485Z,22.48
2022-10-27T01:07:40.808Z,21.13
2022-10-27T01:10:29.473Z,18.65
2022-10-27T01:13:18.421Z,20.85
2022-10-27T01:16:15.297Z,19.40
2022-10-27T01:19:37.346Z,22.90
2022-10-27T01:22:37.115Z,17.25
2022-10-27T01:25:46.534Z,20.40
2022-10-27T01:28:58.984Z,24.15
2022-10-27T01:32:10.662Z,22.02
2022-10-27T01:35:06.686Z,18.60
2022-10-27T01:38:14.207Z,21.77
2022-10-27T01:41:21.298Z,23.63
2022-10-27T01:44:18.452Z,21.25
2022-10-27T01:47:10.359Z,16.08
2022-10-27T01:49:58.491Z,14.60
2022-10-27T01:52:51.298Z,19.27
2022-10-27T01:55:57.881Z,21.13
2022-10-27T01:59:18.349Z,27.70
2022-10-27T02:02:42.557Z,27.50
2022-10-27T02:05:51.207Z,18.23
2022-10-27T02:08:46.927Z,17.33
2022-10-27T02:11:39.353Z,21.85
2022-10-27T02:14:27.389Z,17.17
2022-10-27T02:17:17.687Z,17.63
2022-10-27T02:20:14.114Z,20.63
2022-10-27T02:23:07.527Z,22.25
2022-10-27T02:26:25.795Z,18.00
2022-10-27T02:29:28.990Z,21.67
2022-10-27T02:32:20.605Z,15.15
2022-10-27T02:35:11.223Z,20.33
2022-10-27T02:37:59.577Z,17.48
2022-10-27T02:40:47.875Z,17.00
2022-10-27T02:43:35.638Z,24.40
2022-10-27T02:46:23.526Z,13.98
2022-10-27T02:49:11.302Z,24.25
2022-10-27T02:51:59.355Z,13.63
2022-10-27T02:54:48.702Z,13.55
2022-10-27T02:57:36.767Z,18.77
2022-10-27T03:00:24.750Z,22.27
2022-10-27T03:03:12.663Z,25.15
2022-10-27T03:06:00.523Z,26.52
2022-10-27T03:08:48.406Z,18.13
2022-10-27T03:11:36.107Z,20.27
2022-10-27T03:14:24.342Z,15.07
2022-10-27T03:17:12.291Z,17.08
2022-10-27T03:20:00.482Z,20.02
2022-10-27T03:22:48.799Z,17.13
2022-10-27T03:25:37.610Z,36.67
2022-10-27T03:28:25.439Z,30.67
2022-10-27T03:31:13.194Z,88.95
2022-10-27T03:34:00.967Z,99.30
2022-10-27T03:36:48.832Z,113.95
2022-10-27T03:39:36.928Z,161.43
2022-10-27T03:42:24.840Z,126.03
2022-10-27T03:45:12.734Z,285.23
2022-10-27T03:48:01.788Z,182.23
2022-10-27T03:50:51.182Z,170.70
2022-10-27T03:53:41.816Z,115.15
2022-10-27T03:56:29.688Z,216.52
2022-10-27T04:02:07.352Z,170.68
2022-10-27T04:04:57.620Z,170.68
2022-10-27T04:07:47.269Z,246.07
2022-10-27T04:10:35.213Z,231.77
2022-10-27T04:13:26.735Z,285.50
2022-10-27T04:16:17.497Z,373.80
2022-10-27T04:19:04.997Z,277.25
2022-10-27T04:21:52.790Z,228.25
2022-10-27T04:24:40.455Z,265.52
2022-10-27T04:27:28.367Z,340.17
2022-10-27T04:30:16.129Z,232.80
2022-10-27T04:33:04.213Z,455.05
2022-10-27T04:35:52.071Z,321.92
2022-10-27T04:38:39.782Z,272.58
2022-10-27T04:41:27.764Z,237.73
2022-10-27T04:44:15.483Z,325.52
2022-10-27T04:47:03.457Z,310.05
2022-10-27T04:49:52.417Z,182.93
2022-10-27T04:52:43.511Z,177.43
2022-10-27T04:55:35.214Z,303.30
2022-10-27T04:58:23.187Z,299.38
2022-10-27T05:01:13.453Z,345.88
2022-10-27T05:04:01.723Z,209.02
2022-10-27T05:06:51.695Z,358.27
2022-10-27T05:09:40.232Z,162.43
2022-10-27T05:12:28.423Z,297.70
2022-10-27T05:15:16.958Z,158.70
2022-10-27T05:18:06.861Z,256.10
2022-10-27T05:20:57.248Z,348.60
2022-10-27T05:23:52.975Z,185.18
2022-10-27T05:26:52.514Z,396.73
2022-10-27T05:30:04.405Z,329.92
2022-10-27T05:32:55.006Z,381.52
2022-10-27T05:35:45.403Z,310.58
2022-10-27T05:38:33.198Z,268.10
2022-10-27T05:41:20.973Z,230.48
2022-10-27T05:44:09.096Z,215.95
2022-10-27T05:47:08.958Z,470.23
2022-10-27T05:49:57.053Z,288.13
2022-10-27T06:05:38.608Z,189.07
2022-10-27T06:08:26.502Z,96.85
2022-10-27T06:11:14.182Z,114.18
2022-10-27T06:14:01.890Z,123.35
2022-10-27T06:16:49.617Z,74.15
2022-10-27T06:19:37.361Z,112.78
2022-10-27T06:22:25.246Z,233.15
2022-10-27T06:25:13.061Z,331.05
2022-10-27T06:28:00.775Z,215.13
2022-10-27T06:30:48.653Z,250.13
2022-10-27T06:33:36.191Z,173.25
2022-10-27T06:36:24.188Z,242.95
2022-10-27T06:39:11.814Z,251.57
2022-10-27T06:42:02.530Z,122.18
2022-10-27T06:44:53.301Z,150.02
2022-10-27T06:47:41.390Z,140.00
2022-10-27T06:50:29.313Z,224.30
2022-10-27T06:53:16.941Z,163.30
2022-10-27T06:56:05.172Z,458.27
2022-10-27T06:58:54.135Z,138.63
2022-10-27T07:01:42.238Z,293.80
2022-10-27T07:04:30.400Z,119.22
2022-10-27T07:07:18.414Z,246.82
2022-10-27T07:10:08.431Z,199.43
2022-10-27T07:13:00.049Z,68.15
2022-10-27T07:15:47.793Z,83.68
2022-10-27T07:18:38.029Z,61.55
2022-10-27T07:21:27.525Z,100.35
2022-10-27T07:24:15.371Z,74.63
2022-10-27T07:27:04.774Z,136.88
2022-10-27T07:29:57.589Z,101.63
2022-10-27T07:32:45.427Z,152.52
2022-10-27T07:35:34.456Z,86.97
2022-10-27T07:38:31.154Z,51.35
2022-10-27T07:41:21.963Z,24.52
2022-10-27T07:44:10.956Z,23.40
2022-10-27T07:46:58.909Z,22.45
2022-10-27T07:49:46.642Z,17.02
2022-10-27T07:52:41.340Z,18.85
2022-10-27T07:55:45.998Z,12.20
2022-10-27T07:58:33.766Z,12.45
2022-10-27T08:01:22.024Z,12.20
2022-10-27T08:04:10.092Z,11.27
2022-10-27T08:07:03.875Z,14.95
2022-10-27T08:09:53.279Z,11.43
2022-10-27T08:12:48.463Z,12.90
2022-10-27T08:15:48.729Z,9.52
2022-10-27T08:18:37.258Z,10.35
2022-10-27T08:21:25.480Z,10.57
2022-10-27T08:27:05.361Z,9.82
2022-10-27T08:30:01.694Z,9.38
2022-10-27T08:32:50.755Z,8.80
2022-10-27T08:35:42.229Z,8.45
2022-10-27T08:38:36.662Z,13.77
2022-10-27T08:41:58.374Z,8.15
2022-10-27T08:45:09.062Z,6.78
2022-10-27T08:48:06.667Z,7.75
2022-10-27T08:54:18.780Z,7.10
2022-10-27T08:57:19.800Z,9.90
2022-10-27T09:00:19.598Z,9.93
2022-10-27T09:03:56.686Z,8.13
2022-10-27T09:07:44.261Z,10.50
2022-10-27T09:11:05.759Z,10.13
2022-10-27T09:14:29.828Z,6.30
2022-10-27T09:21:59.386Z,6.85
2022-10-27T09:35:16.444Z,5.90
2022-10-27T11:20:05.261Z,7.38
2022-10-27T11:23:20.052Z,6.28
2022-10-27T11:34:19.540Z,6.07
2022-10-27T11:37:56.426Z,6.80
2022-10-27T11:41:27.018Z,5.47
2022-10-27T11:44:53.815Z,8.65
2022-10-27T11:51:12.138Z,11.40
2022-10-27T11:54:17.963Z,9.23
2022-10-27T11:57:39.775Z,8.35
2022-10-27T12:01:08.487Z,12.07
2022-10-27T12:04:38.424Z,9.70
2022-10-27T12:07:51.638Z,10.02
2022-10-27T12:12:32.307Z,7.05
2022-10-27T12:15:02.845Z,8.60
2022-10-27T12:18:17.271Z,8.35
2022-10-27T12:21:55.843Z,6.78
2022-10-27T12:25:34.442Z,8.98
2022-10-27T12:29:25.200Z,7.82
2022-10-27T12:32:58.293Z,10.30
2022-10-27T12:53:10.934Z,10.30
2022-10-27T12:56:41.400Z,8.50
2022-10-27T13:00:12.154Z,10.57
2022-10-27T13:06:49.000Z,9.18
2022-10-27T16:35:38.108Z,15.13
2022-10-27T16:38:26.303Z,13.18
2022-10-27T16:41:18.292Z,13.57
2022-10-27T16:44:06.253Z,12.75
2022-10-27T16:46:56.930Z,13.05
2022-10-27T16:49:44.921Z,15.30
2022-10-27T16:52:33.002Z,17.58
2022-10-27T16:55:20.948Z,10.73
2022-10-27T16:58:09.022Z,16.42
2022-10-27T17:00:56.796Z,12.73
2022-10-27T17:03:45.165Z,23.55
2022-10-27T17:06:33.195Z,10.15
2022-10-27T17:09:21.091Z,14.35
2022-10-27T17:12:08.996Z,11.57
2022-10-27T17:14:57.012Z,13.35
2022-10-27T17:17:46.995Z,17.20
2022-10-27T17:20:37.605Z,17.45
2022-10-27T17:23:25.784Z,16.33
2022-10-27T17:26:14.981Z,19.33
2022-10-27T17:29:09.936Z,16.85
2022-10-27T17:31:57.868Z,16.92
2022-10-27T17:34:45.791Z,14.63
2022-10-27T17:37:33.730Z,18.42
2022-10-27T17:40:25.425Z,15.20
2022-10-27T17:43:15.694Z,15.93
2022-10-27T17:46:18.556Z,18.27
2022-10-27T17:49:06.671Z,15.80
2022-10-27T17:51:54.836Z,17.58
2022-10-27T17:54:43.212Z,15.80
2022-10-27T17:57:31.091Z,17.98
2022-10-27T18:00:18.955Z,18.92
2022-10-27T18:03:09.416Z,19.95
2022-10-27T18:06:02.526Z,13.85
2022-10-27T18:08:53.840Z,14.00
2022-10-27T18:11:42.364Z,18.17
2022-10-27T18:14:30.486Z,19.60
2022-10-27T18:17:18.365Z,13.55
2022-10-27T18:20:06.906Z,17.80
2022-10-27T18:22:55.457Z,17.35
2022-10-27T18:25:43.392Z,14.23
2022-10-27T18:28:34.464Z,13.95
2022-10-27T18:31:25.029Z,17.67
2022-10-27T18:34:15.817Z,15.60
2022-10-27T18:37:03.674Z,14.38
2022-10-27T18:39:51.697Z,16.95
2022-10-27T18:42:39.523Z,12.85
2022-10-27T18:45:27.385Z,20.05
2022-10-27T18:48:15.477Z,21.58
2022-10-27T18:51:07.667Z,16.60
2022-10-27T18:53:57.849Z,19.48
2022-10-27T18:56:45.670Z,23.08
2022-10-27T18:59:33.625Z,17.30
2022-10-27T19:05:37.554Z,20.90
2022-10-27T19:08:25.797Z,17.17
2022-10-27T19:11:18.920Z,17.67
2022-10-27T19:14:06.716Z,17.25
2022-10-27T19:16:55.803Z,16.35
2022-10-27T19:19:43.769Z,17.70
2022-10-27T19:22:31.793Z,14.25
2022-10-27T19:25:19.371Z,21.15
2022-10-27T19:28:07.369Z,17.48
2022-10-27T19:30:56.220Z,16.23
2022-10-27T19:33:44.732Z,22.75
2022-10-27T19:36:37.842Z,18.67
2022-10-27T19:39:25.483Z,15.77
2022-10-27T19:42:13.395Z,16.15
2022-10-27T19:45:02.864Z,19.67
2022-10-27T19:47:51.585Z,21.85
2022-10-27T19:50:39.519Z,21.73
2022-10-27T19:53:27.430Z,18.85
2022-10-27T19:56:16.761Z,16.15
2022-10-27T19:59:04.815Z,21.30
2022-10-27T20:01:54.262Z,19.65
2022-10-27T20:04:42.137Z,25.75
2022-10-27T20:07:30.102Z,19.17
2022-10-27T20:10:29.379Z,19.98
2022-10-27T20:13:17.208Z,19.42
2022-10-27T20:16:07.024Z,19.30
2022-10-27T20:18:56.640Z,20.45
2022-10-27T20:21:48.759Z,20.38
2022-10-27T20:24:36.741Z,14.85
2022-10-27T20:27:24.916Z,17.98
2022-10-27T20:30:13.018Z,18.27
2022-10-27T20:33:01.037Z,17.52
2022-10-27T20:35:49.015Z,16.42
2022-10-27T20:38:37.348Z,19.10
2022-10-27T20:41:28.401Z,14.68
2022-10-27T20:44:16.244Z,16.65
2022-10-27T20:47:04.469Z,16.05
2022-10-27T20:49:52.316Z,21.33
2022-10-27T20:52:43.022Z,19.88
2022-10-27T20:55:32.379Z,21.10
2022-10-27T20:58:22.009Z,20.00
2022-10-27T21:01:24.576Z,18.23
2022-10-27T21:04:15.090Z,20.13
2022-10-27T21:07:02.929Z,17.77
2022-10-27T21:09:53.913Z,18.27
2022-10-27T21:12:42.167Z,23.20
2022-10-27T21:15:34.775Z,15.95
2022-10-27T21:18:22.786Z,20.10
2022-10-27T21:21:14.972Z,19.48
2022-10-27T21:24:06.859Z,17.15
2022-10-27T21:27:00.085Z,20.08
2022-10-27T21:29:48.031Z,21.83
2022-10-27T21:32:35.797Z,15.32
2022-10-27T21:35:25.065Z,23.67
2022-10-27T21:38:26.005Z,24.35
2022-10-27T21:41:18.133Z,22.33
2022-10-27T21:44:06.011Z,19.33
2022-10-27T21:46:54.091Z,22.30
2022-10-27T21:49:43.115Z,19.27
2022-10-27T21:52:31.137Z,21.30
2022-10-27T21:55:21.866Z,19.15
2022-10-27T21:58:12.920Z,26.15
2022-10-27T22:01:17.516Z,19.38
2022-10-27T22:04:14.433Z,21.00
2022-10-27T22:07:02.323Z,20.83
2022-10-27T22:09:50.576Z,19.17
2022-10-27T22:12:38.539Z,32.42
2022-10-27T22:15:26.401Z,23.30
2022-10-27T22:18:14.340Z,19.25
2022-10-27T22:21:11.628Z,21.70
2022-10-27T22:24:03.772Z,18.02
2022-10-27T22:26:58.053Z,22.63
2022-10-27T22:29:45.840Z,21.92
2022-10-27T22:32:33.886Z,24.38
2022-10-27T22:35:22.289Z,22.77
2022-10-27T22:38:12.702Z,23.50
2022-10-27T22:41:06.057Z,23.65
2022-10-27T22:44:01.710Z,22.87
2022-10-27T22:46:49.480Z,19.45
2022-10-27T22:50:03.353Z,25.67
2022-10-27T22:52:51.197Z,20.25
2022-10-27T22:55:38.847Z,25.13
2022-10-27T22:58:29.748Z,23.48
2022-10-27T23:01:26.239Z,18.33
2022-10-27T23:04:16.285Z,21.73
2022-10-27T23:07:04.302Z,20.55
2022-10-27T23:09:52.109Z,23.70
2022-10-27T23:12:40.105Z,21.90
2022-10-27T23:15:27.829Z,19.77
2022-10-27T23:18:15.717Z,19.15
2022-10-27T23:21:05.654Z,22.92
2022-10-27T23:23:57.998Z,22.85
2022-10-27T23:26:45.733Z,20.45
2022-10-27T23:29:34.022Z,23.20
2022-10-27T23:32:21.961Z,24.13
2022-10-27T23:35:10.203Z,23.42
2022-10-27T23:37:57.928Z,20.60
2022-10-27T23:40:53.611Z,21.75
2022-10-27T23:43:41.854Z,22.38
2022-10-27T23:46:30.725Z,21.67
2022-10-27T23:49:19.545Z,21.80
2022-10-27T23:52:07.300Z,18.65
2022-10-27T23:54:55.171Z,21.48
2022-10-27T23:57:42.979Z,18.00
